createdAt,value
2023-05-07T00:00:02.037Z,7.72
2023-05-07T00:02:29.333Z,8.32
2023-05-07T00:04:56.975Z,7.57
2023-05-07T00:07:25.021Z,8.70
2023-05-07T00:09:52.272Z,8.40
2023-05-07T00:12:19.619Z,8.45
2023-05-07T00:14:48.135Z,7.45
2023-05-07T00:17:15.392Z,7.47
2023-05-07T00:19:42.586Z,7.95
2023-05-07T00:22:09.949Z,7.82
2023-05-07T00:24:37.168Z,7.68
2023-05-07T00:27:04.475Z,7.82
2023-05-07T00:29:31.684Z,7.55
2023-05-07T00:32:00.357Z,7.82
2023-05-07T00:34:27.592Z,7.90
2023-05-07T00:36:54.902Z,7.88
2023-05-07T00:39:22.136Z,7.80
2023-05-07T00:41:49.387Z,7.80
2023-05-07T00:44:16.709Z,8.07
2023-05-07T00:46:43.936Z,7.97
2023-05-07T00:49:12.481Z,8.63
2023-05-07T00:51:39.719Z,8.15
2023-05-07T00:54:07.066Z,7.28
2023-05-07T00:56:34.335Z,8.10
2023-05-07T00:59:02.239Z,7.53
2023-05-07T01:01:29.766Z,7.72
2023-05-07T01:03:57.327Z,7.85
2023-05-07T01:06:26.658Z,8.50
2023-05-07T01:08:56.644Z,7.40
2023-05-07T01:11:23.863Z,8.48
2023-05-07T01:13:51.099Z,7.93
2023-05-07T01:16:18.344Z,7.88
2023-05-07T01:18:48.103Z,8.07
2023-05-07T01:21:15.446Z,8.45
2023-05-07T01:23:44.035Z,7.60
2023-05-07T01:26:11.357Z,8.85
2023-05-07T01:28:38.580Z,8.85
2023-05-07T01:31:07.068Z,7.97
2023-05-07T01:33:35.213Z,7.55
2023-05-07T01:36:04.559Z,8.27
2023-05-07T01:38:31.938Z,8.93
2023-05-07T01:41:01.056Z,8.55
2023-05-07T01:43:28.270Z,7.78
2023-05-07T01:45:55.572Z,9.38
2023-05-07T01:48:22.823Z,9.85
2023-05-07T01:50:50.154Z,8.48
2023-05-07T01:53:17.418Z,8.85
2023-05-07T01:55:44.666Z,7.97
2023-05-07T01:58:13.231Z,8.55
2023-05-07T02:00:41.663Z,10.40
2023-05-07T02:03:09.112Z,8.60
2023-05-07T02:05:36.496Z,7.90
2023-05-07T02:08:03.795Z,8.13
2023-05-07T02:10:31.070Z,10.00
2023-05-07T02:12:58.366Z,9.02
2023-05-07T02:15:27.701Z,8.45
2023-05-07T02:18:01.858Z,8.73
2023-05-07T02:20:29.206Z,9.90
2023-05-07T02:22:56.487Z,8.65
2023-05-07T02:25:23.679Z,8.93
2023-05-07T02:27:51.067Z,10.10
2023-05-07T02:30:18.313Z,8.32
2023-05-07T02:32:46.832Z,9.23
2023-05-07T02:35:14.085Z,10.10
2023-05-07T02:37:41.367Z,9.00
2023-05-07T02:40:09.443Z,9.23
2023-05-07T02:42:37.067Z,8.98
2023-05-07T02:45:04.512Z,8.85
2023-05-07T02:47:31.851Z,8.57
2023-05-07T02:50:00.430Z,9.45
2023-05-07T02:52:27.676Z,9.85
2023-05-07T02:54:54.917Z,9.95
2023-05-07T02:57:22.130Z,9.55
2023-05-07T02:59:49.397Z,9.88
2023-05-07T03:02:16.597Z,10.82
2023-05-07T03:04:43.797Z,9.40
2023-05-07T03:07:12.351Z,8.77
2023-05-07T03:09:39.606Z,9.65
2023-05-07T03:12:07.014Z,9.85
2023-05-07T03:14:34.268Z,9.35
2023-05-07T03:17:01.541Z,10.23
2023-05-07T03:19:28.819Z,10.98
2023-05-07T03:21:56.401Z,10.15
2023-05-07T03:24:24.966Z,10.27
2023-05-07T03:26:52.197Z,11.75
2023-05-07T03:29:19.474Z,9.27
2023-05-07T03:31:46.891Z,9.45
2023-05-07T03:34:14.147Z,10.98
2023-05-07T03:36:41.361Z,8.90
2023-05-07T03:39:08.780Z,9.70
2023-05-07T03:41:37.461Z,10.65
2023-05-07T03:44:04.857Z,9.90
2023-05-07T03:46:33.736Z,9.88
2023-05-07T03:49:01.064Z,8.95
2023-05-07T03:51:28.331Z,11.23
2023-05-07T03:53:58.001Z,9.73
2023-05-07T03:56:27.416Z,9.70
2023-05-07T03:58:56.056Z,10.05
2023-05-07T04:01:23.279Z,10.68
2023-05-07T04:03:50.672Z,10.70
2023-05-07T04:06:18.064Z,9.77
2023-05-07T04:08:45.401Z,10.60
2023-05-07T04:11:12.630Z,11.60
2023-05-07T04:13:39.884Z,10.65
2023-05-07T04:16:08.582Z,10.43
2023-05-07T04:18:35.867Z,10.75
2023-05-07T04:21:03.204Z,10.55
2023-05-07T04:23:30.467Z,11.02
2023-05-07T04:25:58.232Z,10.63
2023-05-07T04:28:25.484Z,10.70
2023-05-07T04:30:52.681Z,10.27
2023-05-07T04:33:21.306Z,10.77
2023-05-07T04:35:48.560Z,10.73
2023-05-07T04:38:15.875Z,10.60
2023-05-07T04:40:43.211Z,11.15
2023-05-07T04:43:10.463Z,11.48
2023-05-07T04:45:37.814Z,10.55
2023-05-07T04:48:05.549Z,10.25
2023-05-07T04:50:34.174Z,10.18
2023-05-07T04:53:02.128Z,11.77
2023-05-07T04:55:29.355Z,10.57
2023-05-07T04:57:56.605Z,11.10
2023-05-07T05:00:23.888Z,10.05
2023-05-07T05:02:51.337Z,10.18
2023-05-07T05:05:18.757Z,11.98
2023-05-07T05:07:47.342Z,10.40
2023-05-07T05:10:14.687Z,10.00
2023-05-07T05:12:41.977Z,11.50
2023-05-07T05:15:11.222Z,12.38
2023-05-07T05:17:38.484Z,11.70
2023-05-07T05:20:06.721Z,10.32
2023-05-07T05:22:33.948Z,12.30
2023-05-07T05:25:02.868Z,10.95
2023-05-07T05:27:30.604Z,11.38
2023-05-07T05:29:57.812Z,11.88
2023-05-07T05:32:25.130Z,10.80
2023-05-07T05:34:52.413Z,11.13
2023-05-07T05:37:19.644Z,10.90
2023-05-07T05:39:46.891Z,10.90
2023-05-07T05:42:15.537Z,10.85
2023-05-07T05:44:42.795Z,10.70
2023-05-07T05:47:10.009Z,9.63
2023-05-07T05:49:37.302Z,10.05
2023-05-07T05:52:04.672Z,10.25
2023-05-07T05:54:31.942Z,9.98
2023-05-07T05:56:59.176Z,9.40
2023-05-07T05:59:27.711Z,10.00
2023-05-07T06:01:55.001Z,10.30
2023-05-07T06:04:22.273Z,10.70
2023-05-07T06:06:49.478Z,10.43
2023-05-07T06:09:16.796Z,9.90
2023-05-07T06:11:44.079Z,9.93
2023-05-07T06:14:11.302Z,8.93
2023-05-07T06:16:40.002Z,11.18
2023-05-07T06:19:07.243Z,10.68
2023-05-07T06:21:34.521Z,9.23
2023-05-07T06:24:01.766Z,10.35
2023-05-07T06:26:29.074Z,9.60
2023-05-07T06:28:56.315Z,9.20
2023-05-07T06:31:23.624Z,11.52
2023-05-07T06:33:52.218Z,8.45
2023-05-07T06:36:19.479Z,9.07
2023-05-07T06:38:46.758Z,8.93
2023-05-07T06:41:14.003Z,8.80
2023-05-07T06:43:41.265Z,8.32
2023-05-07T06:46:08.534Z,7.65
2023-05-07T06:48:35.817Z,8.50
2023-05-07T06:51:04.411Z,7.95
2023-05-07T06:53:31.729Z,7.82
2023-05-07T06:55:58.989Z,7.57
2023-05-07T06:58:26.197Z,7.78
2023-05-07T07:00:53.402Z,7.18
2023-05-07T07:03:20.685Z,7.78
2023-05-07T07:05:47.930Z,8.02
2023-05-07T07:08:18.876Z,6.75
2023-05-07T07:10:46.134Z,9.30
2023-05-07T07:13:13.501Z,7.18
2023-05-07T07:15:41.090Z,6.97
2023-05-07T07:18:08.407Z,6.63
2023-05-07T07:20:35.768Z,8.07
2023-05-07T07:23:03.043Z,6.93
2023-05-07T07:25:31.648Z,7.00
2023-05-07T07:27:58.883Z,6.70
2023-05-07T07:30:27.047Z,6.53
2023-05-07T07:32:54.604Z,6.68
2023-05-07T07:35:21.846Z,6.65
2023-05-07T07:37:50.754Z,6.72
2023-05-07T07:40:17.979Z,6.05
2023-05-07T07:42:46.486Z,6.60
2023-05-07T07:45:13.716Z,8.18
2023-05-07T07:47:41.215Z,6.35
2023-05-07T07:50:09.080Z,6.45
2023-05-07T07:52:36.544Z,6.60
2023-05-07T07:55:04.178Z,6.50
2023-05-07T07:57:31.381Z,6.40
2023-05-07T07:59:59.902Z,6.60
2023-05-07T08:02:27.328Z,6.53
2023-05-07T08:04:54.563Z,6.55
2023-05-07T08:07:23.624Z,6.35
2023-05-07T08:09:50.829Z,6.88
2023-05-07T08:12:18.108Z,5.72
2023-05-07T08:14:45.290Z,5.93
2023-05-07T08:17:16.725Z,6.03
2023-05-07T08:19:44.230Z,5.72
2023-05-07T08:22:11.539Z,5.50
2023-05-07T08:24:38.780Z,6.07
2023-05-07T08:27:05.986Z,5.40
2023-05-07T08:29:33.183Z,5.88
2023-05-07T08:32:00.468Z,5.45
2023-05-07T08:34:29.041Z,5.47
2023-05-07T08:36:56.622Z,6.07
2023-05-07T08:39:23.868Z,5.13
2023-05-07T08:41:51.067Z,5.28
2023-05-07T08:44:19.030Z,5.75
2023-05-07T08:46:47.718Z,5.05
2023-05-07T08:49:16.780Z,5.00
2023-05-07T08:51:45.314Z,4.90
2023-05-07T08:54:12.643Z,5.35
2023-05-07T08:56:40.604Z,5.00
2023-05-07T08:59:07.813Z,5.30
2023-05-07T09:01:36.893Z,4.82
2023-05-07T09:04:04.329Z,5.32
2023-05-07T09:06:32.087Z,4.78
2023-05-07T09:09:02.102Z,5.65
2023-05-07T09:11:29.471Z,4.35
2023-05-07T09:13:57.461Z,4.68
2023-05-07T09:16:25.190Z,4.18
2023-05-07T09:18:52.754Z,4.82
2023-05-07T09:21:20.001Z,4.55
2023-05-07T09:23:47.209Z,4.18
2023-05-07T09:26:15.879Z,4.28
2023-05-07T09:28:43.359Z,4.47
2023-05-07T09:31:10.648Z,4.15
2023-05-07T09:33:37.921Z,4.78
2023-05-07T09:36:06.025Z,4.15
2023-05-07T09:38:33.897Z,4.13
2023-05-07T09:41:04.410Z,4.05
2023-05-07T09:43:35.333Z,3.58
2023-05-07T09:46:04.275Z,3.95
2023-05-07T09:48:31.521Z,3.90
2023-05-07T09:50:59.498Z,3.95
2023-05-07T09:53:26.734Z,4.15
2023-05-07T09:55:53.975Z,3.97
2023-05-07T09:58:21.172Z,3.95
2023-05-07T10:00:49.717Z,3.70
2023-05-07T10:03:17.114Z,3.78
2023-05-07T10:05:45.368Z,3.63
2023-05-07T10:08:12.613Z,4.20
2023-05-07T10:10:39.827Z,4.40
2023-05-07T10:13:11.516Z,3.40
2023-05-07T10:15:38.801Z,3.55
2023-05-07T10:18:07.590Z,3.63
2023-05-07T10:20:35.213Z,3.70
2023-05-07T10:23:02.445Z,3.60
2023-05-07T10:25:30.412Z,3.90
2023-05-07T10:27:57.674Z,3.58
2023-05-07T10:30:27.556Z,3.55
2023-05-07T10:32:55.642Z,3.63
2023-05-07T10:35:24.847Z,3.33
2023-05-07T10:37:52.054Z,3.70
2023-05-07T10:40:20.423Z,3.53
2023-05-07T10:42:57.574Z,3.80
2023-05-07T10:45:25.390Z,3.28
2023-05-07T10:48:20.799Z,3.72
2023-05-07T10:50:56.522Z,3.30
2023-05-07T10:53:26.821Z,3.55
2023-05-07T10:55:54.210Z,3.20
2023-05-07T10:58:31.512Z,3.67
2023-05-07T11:01:00.091Z,3.50
2023-05-07T11:03:27.389Z,3.17
2023-05-07T11:06:14.602Z,3.22
2023-05-07T11:08:57.165Z,3.53
2023-05-07T11:11:39.359Z,3.50
2023-05-07T11:14:06.621Z,3.58
2023-05-07T11:16:34.474Z,3.30
2023-05-07T11:19:01.736Z,3.75
2023-05-07T11:21:37.085Z,3.33
2023-05-07T11:24:04.626Z,3.90
2023-05-07T11:26:32.212Z,4.40
2023-05-07T11:29:01.124Z,3.45
2023-05-07T11:31:30.201Z,3.70
2023-05-07T11:33:57.496Z,3.47
2023-05-07T11:36:25.029Z,3.60
2023-05-07T11:38:53.573Z,4.35
2023-05-07T11:41:21.978Z,3.72
2023-05-07T11:43:56.097Z,3.90
2023-05-07T11:48:43.652Z,3.90
2023-05-07T11:51:12.947Z,3.72
2023-05-07T11:53:40.757Z,4.10
2023-05-07T11:56:09.680Z,3.80
2023-05-07T11:58:37.122Z,4.05
2023-05-07T12:01:04.532Z,4.20
2023-05-07T12:03:35.636Z,4.28
2023-05-07T12:06:03.480Z,3.65
2023-05-07T12:08:30.717Z,3.75
2023-05-07T12:10:57.910Z,3.90
2023-05-07T12:13:26.897Z,4.35
2023-05-07T12:15:54.329Z,4.10
2023-05-07T12:18:21.550Z,4.18
2023-05-07T12:20:48.778Z,4.43
2023-05-07T12:23:16.084Z,4.07
2023-05-07T12:25:47.479Z,4.32
2023-05-07T12:28:15.083Z,4.72
2023-05-07T12:30:43.570Z,4.65
2023-05-07T12:33:10.792Z,4.38
2023-05-07T12:35:40.407Z,3.92
2023-05-07T12:38:09.384Z,3.95
2023-05-07T12:40:39.713Z,4.25
2023-05-07T12:43:06.974Z,5.50
2023-05-07T12:45:35.413Z,4.53
2023-05-07T12:48:04.655Z,4.80
2023-05-07T12:50:35.302Z,5.17
2023-05-07T12:53:04.225Z,4.53
2023-05-07T12:55:34.916Z,4.57
2023-05-07T12:58:02.488Z,4.38
2023-05-07T13:00:36.153Z,4.55
2023-05-07T13:03:04.842Z,5.00
2023-05-07T13:05:32.486Z,4.68
2023-05-07T13:07:59.729Z,4.22
2023-05-07T13:10:27.315Z,4.35
2023-05-07T13:12:54.584Z,4.60
2023-05-07T13:15:24.151Z,4.40
2023-05-07T13:17:51.551Z,4.93
2023-05-07T13:20:20.133Z,4.78
2023-05-07T13:22:47.311Z,4.60
2023-05-07T13:25:15.092Z,5.10
2023-05-07T13:27:42.491Z,4.75
2023-05-07T13:30:09.859Z,4.85
2023-05-07T13:32:37.126Z,5.22
2023-05-07T13:35:04.584Z,4.70
2023-05-07T13:37:33.097Z,4.88
2023-05-07T13:40:00.323Z,4.82
2023-05-07T13:42:27.757Z,4.80
2023-05-07T13:44:54.980Z,4.75
2023-05-07T13:47:23.408Z,4.50
2023-05-07T13:49:51.828Z,4.82
2023-05-07T13:52:19.051Z,4.40
2023-05-07T13:54:47.571Z,4.20
2023-05-07T13:57:14.770Z,4.60
2023-05-07T13:59:42.196Z,4.70
2023-05-07T14:02:09.995Z,4.50
2023-05-07T14:04:37.319Z,4.40
2023-05-07T14:07:04.501Z,4.78
2023-05-07T14:09:31.686Z,4.85
2023-05-07T14:12:00.321Z,4.60
2023-05-07T14:14:27.530Z,4.72
2023-05-07T14:16:54.755Z,4.90
2023-05-07T14:19:23.591Z,4.28
2023-05-07T14:21:50.843Z,4.50
2023-05-07T14:24:27.420Z,4.50
2023-05-07T14:26:59.543Z,5.18
2023-05-07T14:29:26.760Z,4.75
2023-05-07T14:31:53.975Z,4.63
2023-05-07T14:34:21.157Z,4.82
2023-05-07T14:36:48.422Z,5.07
2023-05-07T14:39:15.610Z,4.63
2023-05-07T14:41:42.804Z,4.85
2023-05-07T14:44:11.346Z,4.68
2023-05-07T14:46:38.779Z,5.38
2023-05-07T14:49:06.652Z,4.82
2023-05-07T14:51:33.945Z,5.75
2023-05-07T14:54:01.239Z,5.45
2023-05-07T14:56:28.480Z,4.80
2023-05-07T14:58:55.735Z,5.03
2023-05-07T15:01:24.336Z,5.28
2023-05-07T15:03:51.709Z,4.72
2023-05-07T15:06:18.996Z,5.30
2023-05-07T15:08:46.634Z,4.90
2023-05-07T15:11:13.865Z,6.18
2023-05-07T15:13:41.091Z,5.40
2023-05-07T15:16:08.338Z,5.13
2023-05-07T15:18:36.888Z,4.55
2023-05-07T15:21:04.222Z,6.20
2023-05-07T15:23:31.408Z,5.13
2023-05-07T15:25:58.600Z,5.00
2023-05-07T15:28:26.297Z,5.18
2023-05-07T15:30:56.155Z,5.38
2023-05-07T15:33:23.554Z,5.60
2023-05-07T15:35:52.049Z,5.05
2023-05-07T15:38:19.244Z,5.53
2023-05-07T15:40:46.634Z,5.18
2023-05-07T15:43:13.884Z,5.20
2023-05-07T15:45:41.364Z,5.13
2023-05-07T15:48:08.908Z,5.80
2023-05-07T15:50:36.289Z,5.05
2023-05-07T15:53:05.061Z,5.40
2023-05-07T15:55:32.360Z,5.07
2023-05-07T15:57:59.555Z,5.28
2023-05-07T16:00:27.171Z,5.00
2023-05-07T16:02:54.420Z,5.53
2023-05-07T16:05:21.700Z,5.25
2023-05-07T16:07:48.950Z,5.35
2023-05-07T16:10:17.475Z,5.78
2023-05-07T16:12:44.760Z,5.63
2023-05-07T16:15:12.255Z,5.40
2023-05-07T16:17:39.898Z,5.85
2023-05-07T16:20:09.126Z,5.90
2023-05-07T16:22:36.940Z,5.43
2023-05-07T16:25:05.269Z,5.60
2023-05-07T16:27:33.812Z,5.13
2023-05-07T16:30:01.028Z,5.07
2023-05-07T16:32:29.984Z,5.70
2023-05-07T16:34:57.277Z,5.80
2023-05-07T16:37:24.700Z,5.65
2023-05-07T16:39:51.952Z,5.90
2023-05-07T16:42:19.152Z,5.72
2023-05-07T16:44:47.681Z,5.85
2023-05-07T16:47:14.862Z,5.40
2023-05-07T16:49:42.064Z,5.65
2023-05-07T16:52:09.507Z,5.45
2023-05-07T16:54:36.716Z,5.90
2023-05-07T16:57:03.983Z,6.25
2023-05-07T16:59:33.301Z,5.80
2023-05-07T17:02:01.889Z,6.45
2023-05-07T17:04:29.760Z,6.00
2023-05-07T17:06:57.711Z,6.00
2023-05-07T17:09:24.912Z,5.22
2023-05-07T17:11:52.179Z,6.13
2023-05-07T17:14:19.413Z,5.72
2023-05-07T17:16:46.811Z,6.03
2023-05-07T17:19:15.373Z,6.15
2023-05-07T17:21:42.574Z,6.38
2023-05-07T17:24:10.302Z,6.70
2023-05-07T17:26:39.106Z,6.28
2023-05-07T17:29:06.401Z,7.03
2023-05-07T17:31:33.658Z,6.10
2023-05-07T17:34:00.864Z,6.80
2023-05-07T17:36:29.383Z,6.35
2023-05-07T17:38:56.578Z,6.30
2023-05-07T17:41:23.789Z,6.50
2023-05-07T17:43:51.009Z,6.72
2023-05-07T17:46:18.317Z,6.25
2023-05-07T17:48:45.586Z,6.85
2023-05-07T17:51:12.769Z,6.90
2023-05-07T17:53:41.292Z,7.13
2023-05-07T17:56:08.483Z,7.78
2023-05-07T17:58:45.199Z,7.53
2023-05-07T18:01:23.439Z,6.78
2023-05-07T18:03:50.795Z,7.53
2023-05-07T18:06:20.100Z,7.60
2023-05-07T18:08:48.937Z,8.10
2023-05-07T18:11:16.180Z,7.68
2023-05-07T18:13:43.407Z,7.25
2023-05-07T18:16:10.682Z,7.32
2023-05-07T18:18:37.931Z,7.03
2023-05-07T18:21:05.295Z,8.05
2023-05-07T18:23:35.351Z,7.30
2023-05-07T18:28:31.040Z,7.88
2023-05-07T18:30:58.258Z,7.80
2023-05-07T18:33:25.529Z,7.20
2023-05-07T18:35:52.738Z,8.55
2023-05-07T18:38:19.925Z,8.15
2023-05-07T18:40:47.589Z,8.15
2023-05-07T18:43:14.783Z,8.30
2023-05-07T18:45:43.365Z,8.55
2023-05-07T18:48:10.655Z,8.50
2023-05-07T18:50:37.949Z,8.20
2023-05-07T18:53:05.393Z,8.50
2023-05-07T18:55:32.581Z,8.38
2023-05-07T18:57:59.755Z,8.73
2023-05-07T19:00:26.984Z,8.23
2023-05-07T19:02:55.734Z,8.23
2023-05-07T19:05:22.965Z,8.50
2023-05-07T19:07:50.959Z,8.15
2023-05-07T19:10:18.626Z,8.43
2023-05-07T19:12:45.893Z,8.18
2023-05-07T19:15:13.156Z,9.10
2023-05-07T19:17:40.447Z,7.97
2023-05-07T19:20:10.809Z,8.30
2023-05-07T19:22:38.235Z,8.02
2023-05-07T19:25:05.903Z,8.50
2023-05-07T19:27:33.137Z,8.07
2023-05-07T19:30:00.347Z,8.35
2023-05-07T19:32:27.592Z,8.40
2023-05-07T19:34:54.826Z,8.38
2023-05-07T19:37:25.387Z,8.88
2023-05-07T19:39:53.163Z,7.50
2023-05-07T19:42:20.397Z,8.43
2023-05-07T19:44:47.625Z,8.05
2023-05-07T19:47:16.076Z,8.80
2023-05-07T19:49:43.352Z,8.27
2023-05-07T19:52:10.687Z,8.45
2023-05-07T19:54:39.288Z,7.80
2023-05-07T19:57:06.622Z,8.30
2023-05-07T19:59:33.935Z,7.80
2023-05-07T20:02:01.312Z,7.95
2023-05-07T20:04:32.801Z,7.82
2023-05-07T20:07:00.679Z,7.47
2023-05-07T20:09:27.924Z,7.88
2023-05-07T20:11:56.591Z,7.43
2023-05-07T20:14:23.860Z,7.80
2023-05-07T20:16:51.092Z,7.68
2023-05-07T20:19:18.604Z,7.80
2023-05-07T20:21:45.854Z,7.32
2023-05-07T20:24:13.090Z,7.75
2023-05-07T20:26:41.015Z,7.47
2023-05-07T20:29:09.684Z,7.63
2023-05-07T20:31:36.957Z,7.40
2023-05-07T20:34:04.237Z,7.47
2023-05-07T20:36:31.436Z,7.53
2023-05-07T20:38:58.683Z,7.13
2023-05-07T20:41:25.894Z,7.55
2023-05-07T20:43:53.182Z,7.35
2023-05-07T20:46:22.655Z,7.20
2023-05-07T20:48:50.390Z,7.38
2023-05-07T20:51:17.609Z,7.20
2023-05-07T20:53:46.863Z,7.47
2023-05-07T20:56:15.107Z,7.75
2023-05-07T20:58:42.304Z,7.30
2023-05-07T21:01:09.712Z,6.70
2023-05-07T21:03:38.304Z,6.70
2023-05-07T21:06:05.584Z,7.40
2023-05-07T21:08:32.843Z,6.95
2023-05-07T21:11:00.257Z,7.05
2023-05-07T21:13:27.570Z,6.80
2023-05-07T21:15:54.838Z,6.50
2023-05-07T21:18:22.174Z,6.47
2023-05-07T21:20:50.695Z,6.68
2023-05-07T21:23:17.903Z,6.47
2023-05-07T21:25:47.271Z,6.85
2023-05-07T21:28:14.644Z,6.45
2023-05-07T21:30:41.898Z,6.53
2023-05-07T21:33:09.321Z,6.32
2023-05-07T21:35:36.738Z,6.40
2023-05-07T21:38:05.297Z,6.45
2023-05-07T21:40:32.520Z,6.85
2023-05-07T21:43:00.059Z,6.40
2023-05-07T21:45:27.315Z,6.25
2023-05-07T21:47:54.529Z,6.47
2023-05-07T21:50:21.935Z,6.55
2023-05-07T21:52:49.175Z,6.03
2023-05-07T21:55:17.977Z,6.05
2023-05-07T21:57:50.900Z,5.95
2023-05-07T22:00:25.165Z,5.32
2023-05-07T22:02:52.548Z,5.78
2023-05-07T22:05:19.937Z,5.32
2023-05-07T22:07:47.214Z,5.65
2023-05-07T22:10:14.544Z,8.45
2023-05-07T22:12:43.314Z,5.90
2023-05-07T22:15:10.913Z,5.45
2023-05-07T22:17:38.162Z,5.05
2023-05-07T22:20:05.872Z,5.50
2023-05-07T22:22:33.070Z,5.00
2023-05-07T22:25:00.267Z,5.55
2023-05-07T22:27:27.480Z,5.28
2023-05-07T22:29:55.980Z,5.10
2023-05-07T22:32:23.242Z,4.88
2023-05-07T22:34:50.739Z,5.07
2023-05-07T22:37:17.953Z,5.18
2023-05-07T22:39:45.185Z,5.03
2023-05-07T22:42:12.518Z,4.82
2023-05-07T22:44:39.776Z,4.97
2023-05-07T22:47:08.359Z,5.78
2023-05-07T22:49:35.623Z,5.05
2023-05-07T22:52:02.849Z,5.15
2023-05-07T22:54:31.705Z,5.28
2023-05-07T22:56:59.769Z,5.03
2023-05-07T22:59:26.984Z,4.85
2023-05-07T23:01:54.312Z,4.82
2023-05-07T23:04:22.976Z,4.80
2023-05-07T23:06:50.348Z,5.00
2023-05-07T23:09:17.587Z,5.28
2023-05-07T23:11:44.832Z,4.82
2023-05-07T23:14:12.102Z,4.72
2023-05-07T23:16:39.346Z,4.43
2023-05-07T23:19:06.615Z,4.43
2023-05-07T23:21:35.178Z,4.63
2023-05-07T23:24:02.570Z,4.07
2023-05-07T23:26:29.875Z,4.70
2023-05-07T23:28:57.109Z,4.40
2023-05-07T23:31:24.375Z,4.78
2023-05-07T23:33:51.690Z,4.47
2023-05-07T23:36:18.917Z,4.38
2023-05-07T23:38:47.509Z,4.97
2023-05-07T23:41:14.817Z,4.28
2023-05-07T23:43:42.015Z,4.82
2023-05-07T23:46:09.294Z,4.70
2023-05-07T23:48:36.603Z,4.53
2023-05-07T23:51:03.779Z,4.35
2023-05-07T23:53:31.449Z,4.20
2023-05-07T23:55:59.980Z,4.47
2023-05-07T23:58:27.383Z,4.60
